Time;durP1;ratioP1;P1;durP2;ratioP2;P2;SDS_P1;SDS_P2;PMS_P1;PMS_P2;Temp;Humidity;BMP_temperature;BMP_pressure;BME280_temperature;BME280_humidity;BME280_pressure;Samples;Min_cycle;Max_cycle;Signal;HPM_P1;HPM_P2
2022/02/15 00:01:53;;;;;;;10.70;2.55;;;;;;;;;;5084667;28;20049;-64
2022/02/15 00:04:20;;;;;;;7.20;1.58;;;;;;;;;;5083563;28;20044;-64
2022/02/15 00:06:46;;;;;;;6.97;2.17;;;;;;;;;;5082942;28;20044;-64
2022/02/15 00:09:12;;;;;;;8.10;1.75;;;;;;;;;;5084997;28;20044;-64
2022/02/15 00:11:38;;;;;;;9.82;1.95;;;;;;;;;;5084151;28;20551;-64
2022/02/15 00:14:04;;;;;;;12.43;2.15;;;;;;;;;;5084627;28;20045;-64
2022/02/15 00:16:30;;;;;;;11.63;2.40;;;;;;;;;;5095416;28;20043;-64
2022/02/15 00:18:57;;;;;;;8.82;2.17;;;;;;;;;;5103423;28;20093;-65
2022/02/15 00:21:24;;;;;;;7.83;1.57;;;;;;;;;;5102878;28;20036;-65
2022/02/15 00:23:50;;;;;;;9.40;1.95;;;;;;;;;;5103048;28;20056;-64
2022/02/15 00:26:16;;;;;;;11.13;1.90;;;;;;;;;;5101712;28;20051;-64
2022/02/15 00:28:42;;;;;;;13.07;2.30;;;;;;;;;;5103331;28;20056;-64
2022/02/15 00:31:08;;;;;;;11.57;2.33;;;;;;;;;;5103366;28;20135;-64
2022/02/15 00:33:34;;;;;;;11.20;2.38;;;;;;;;;;5094279;28;21076;-64
2022/02/15 00:36:00;;;;;;;12.23;3.53;;;;;;;;;;5102433;28;20047;-64
2022/02/15 00:38:26;;;;;;;9.48;2.08;;;;;;;;;;5104556;28;20072;-64
2022/02/15 00:40:52;;;;;;;15.18;2.60;;;;;;;;;;5103102;28;20044;-64
2022/02/15 00:43:19;;;;;;;10.65;2.30;;;;;;;;;;5104338;28;20052;-64
2022/02/15 00:45:46;;;;;;;11.48;2.83;;;;;;;;;;5103494;28;20052;-64
2022/02/15 00:48:12;;;;;;;10.07;2.42;;;;;;;;;;5103181;28;20695;-64
2022/02/15 00:50:38;;;;;;;16.10;2.83;;;;;;;;;;5105515;28;20055;-64
2022/02/15 00:53:04;;;;;;;11.55;2.70;;;;;;;;;;5099134;28;20516;-64
2022/02/15 00:55:30;;;;;;;18.00;3.35;;;;;;;;;;5097315;28;20185;-63
2022/02/15 00:57:56;;;;;;;17.98;3.38;;;;;;;;;;5107870;28;20093;-64
2022/02/15 01:00:22;;;;;;;10.30;2.85;;;;;;;;;;5106676;28;20040;-64
2022/02/15 01:02:49;;;;;;;15.55;2.97;;;;;;;;;;5106363;28;20062;-64
2022/02/15 01:05:15;;;;;;;12.85;3.05;;;;;;;;;;5092064;28;20056;-63
2022/02/15 01:07:41;;;;;;;16.67;2.42;;;;;;;;;;5086674;28;20082;-63
2022/02/15 01:10:08;;;;;;;16.63;3.13;;;;;;;;;;5087052;28;20052;-63
2022/02/15 01:12:34;;;;;;;13.98;2.53;;;;;;;;;;5087069;28;20127;-63
2022/02/15 01:15:00;;;;;;;12.82;2.50;;;;;;;;;;5099056;28;20412;-63
2022/02/15 01:17:27;;;;;;;8.82;2.13;;;;;;;;;;5106421;28;20044;-64
2022/02/15 01:19:54;;;;;;;11.10;2.15;;;;;;;;;;5106117;28;20516;-63
2022/02/15 01:22:20;;;;;;;12.77;2.47;;;;;;;;;;5105378;28;20048;-63
2022/02/15 01:24:46;;;;;;;19.58;3.25;;;;;;;;;;5098550;28;20056;-63
2022/02/15 01:27:12;;;;;;;11.68;2.42;;;;;;;;;;5105603;28;20048;-64
2022/02/15 01:29:38;;;;;;;16.20;2.90;;;;;;;;;;5105990;28;20070;-64
2022/02/15 01:32:05;;;;;;;13.60;2.40;;;;;;;;;;5085910;28;20063;-64
2022/02/15 01:34:31;;;;;;;18.35;3.00;;;;;;;;;;5085608;28;20056;-64
2022/02/15 01:36:57;;;;;;;15.60;3.53;;;;;;;;;;5086257;28;20051;-64
2022/02/15 01:39:23;;;;;;;14.05;2.42;;;;;;;;;;5085661;28;20107;-64
2022/02/15 01:41:49;;;;;;;13.27;2.83;;;;;;;;;;5104302;28;20047;-64
2022/02/15 01:44:18;;;;;;;15.32;3.42;;;;;;;;;;5106748;28;20095;-64
2022/02/15 01:46:44;;;;;;;8.52;2.10;;;;;;;;;;5107245;28;20101;-64
2022/02/15 01:49:11;;;;;;;12.20;2.08;;;;;;;;;;5106859;28;20048;-64
2022/02/15 01:51:37;;;;;;;12.80;2.72;;;;;;;;;;5088295;28;20048;-64
2022/02/15 01:54:03;;;;;;;16.80;2.78;;;;;;;;;;5086691;28;20036;-64
2022/02/15 01:56:29;;;;;;;16.85;2.70;;;;;;;;;;5067347;28;20055;-64
2022/02/15 01:58:56;;;;;;;7.28;2.38;;;;;;;;;;5066393;28;20048;-64
2022/02/15 02:01:23;;;;;;;14.32;2.80;;;;;;;;;;5092730;28;20056;-64
2022/02/15 02:03:49;;;;;;;11.18;2.78;;;;;;;;;;5105321;28;20076;-64
2022/02/15 02:06:15;;;;;;;9.10;2.20;;;;;;;;;;5106065;28;20111;-64
2022/02/15 02:08:41;;;;;;;12.65;2.17;;;;;;;;;;5106494;28;20044;-64
2022/02/15 02:11:07;;;;;;;10.73;1.90;;;;;;;;;;5092980;28;20072;-64
2022/02/15 02:13:33;;;;;;;17.17;2.80;;;;;;;;;;5086473;28;20089;-64
2022/02/15 02:15:59;;;;;;;12.77;2.47;;;;;;;;;;5085989;28;20050;-64
2022/02/15 02:18:25;;;;;;;10.43;3.03;;;;;;;;;;5085935;28;20487;-64
2022/02/15 02:20:52;;;;;;;14.98;2.63;;;;;;;;;;5085185;28;20119;-64
2022/02/15 02:23:19;;;;;;;14.60;3.08;;;;;;;;;;5086051;28;20565;-64
2022/02/15 02:25:45;;;;;;;9.55;2.53;;;;;;;;;;5084317;28;20055;-64
2022/02/15 02:28:11;;;;;;;22.85;4.25;;;;;;;;;;5086415;28;20044;-64
2022/02/15 02:30:38;;;;;;;13.43;2.35;;;;;;;;;;5087028;28;20062;-64
2022/02/15 02:33:04;;;;;;;14.25;3.13;;;;;;;;;;5106062;28;20070;-64
2022/02/15 02:35:30;;;;;;;15.18;2.50;;;;;;;;;;5104848;28;20510;-64
2022/02/15 02:37:57;;;;;;;18.80;2.40;;;;;;;;;;5105384;28;20044;-64
2022/02/15 02:40:23;;;;;;;15.30;3.67;;;;;;;;;;5105727;28;20052;-64
2022/02/15 02:42:50;;;;;;;19.90;2.63;;;;;;;;;;5085872;28;20036;-65
2022/02/15 02:45:17;;;;;;;13.40;3.05;;;;;;;;;;5085675;28;20052;-65
2022/02/15 02:47:45;;;;;;;11.32;2.78;;;;;;;;;;5084189;28;20415;-65
2022/02/15 02:50:11;;;;;;;17.02;2.60;;;;;;;;;;5084278;28;20052;-65
2022/02/15 02:52:38;;;;;;;17.42;2.75;;;;;;;;;;5102405;28;20040;-65
2022/02/15 02:55:04;;;;;;;17.73;2.50;;;;;;;;;;5083766;28;20128;-65
2022/02/15 02:57:30;;;;;;;10.65;2.55;;;;;;;;;;5084255;28;20041;-65
2022/02/15 02:59:56;;;;;;;13.55;2.70;;;;;;;;;;5083807;28;20086;-64
2022/02/15 03:02:22;;;;;;;18.73;3.78;;;;;;;;;;5087588;28;20059;-64
2022/02/15 03:04:49;;;;;;;17.05;3.30;;;;;;;;;;5064042;28;20045;-64
2022/02/15 03:07:15;;;;;;;18.67;3.30;;;;;;;;;;5063485;28;20055;-64
2022/02/15 03:09:41;;;;;;;13.82;2.83;;;;;;;;;;5065453;28;20048;-64
2022/02/15 03:12:07;;;;;;;13.05;2.60;;;;;;;;;;5081700;28;20045;-64
2022/02/15 03:14:34;;;;;;;18.58;3.65;;;;;;;;;;5083602;28;20059;-64
2022/02/15 03:17:00;;;;;;;17.38;3.03;;;;;;;;;;5084894;28;20494;-64
2022/02/15 03:19:26;;;;;;;13.98;2.95;;;;;;;;;;5084862;28;20052;-64
2022/02/15 03:21:52;;;;;;;16.98;2.85;;;;;;;;;;5095405;28;20545;-64
2022/02/15 03:24:18;;;;;;;13.10;2.83;;;;;;;;;;5105465;28;20052;-65
2022/02/15 03:26:44;;;;;;;12.85;2.60;;;;;;;;;;5103493;28;20047;-65
2022/02/15 03:29:13;;;;;;;15.77;3.22;;;;;;;;;;5103712;28;20108;-65
2022/02/15 03:31:40;;;;;;;17.58;3.55;;;;;;;;;;5093592;28;20053;-65
2022/02/15 03:34:06;;;;;;;11.43;2.50;;;;;;;;;;5084794;28;20101;-65
2022/02/15 03:36:32;;;;;;;23.98;3.13;;;;;;;;;;5082891;28;20087;-65
2022/02/15 03:38:58;;;;;;;18.65;3.75;;;;;;;;;;5084824;28;20454;-65
2022/02/15 03:44:09;;;;;;;15.13;2.63;;;;;;;;;;5064189;28;20057;-65
2022/02/15 03:46:35;;;;;;;19.20;3.20;;;;;;;;;;5079640;28;20048;-65
2022/02/15 03:49:01;;;;;;;15.20;3.58;;;;;;;;;;5079700;28;20136;-65
2022/02/15 03:51:27;;;;;;;12.25;2.78;;;;;;;;;;5088439;28;20104;-65
2022/02/15 03:53:54;;;;;;;15.95;2.80;;;;;;;;;;5083389;28;20477;-64
2022/02/15 03:56:20;;;;;;;15.55;3.20;;;;;;;;;;5082615;28;20045;-64
2022/02/15 03:58:47;;;;;;;20.25;3.22;;;;;;;;;;5082914;28;20053;-64
2022/02/15 04:01:13;;;;;;;16.10;3.00;;;;;;;;;;5089062;28;20059;-64
2022/02/15 04:03:39;;;;;;;15.88;3.30;;;;;;;;;;5103251;28;20052;-65
2022/02/15 04:06:05;;;;;;;11.02;2.63;;;;;;;;;;5102493;28;20051;-65
2022/02/15 04:08:31;;;;;;;16.15;2.95;;;;;;;;;;5103653;28;20058;-65
2022/02/15 04:10:58;;;;;;;14.18;2.20;;;;;;;;;;5095337;28;20130;-64
2022/02/15 04:13:24;;;;;;;14.02;2.97;;;;;;;;;;5084184;28;20092;-64
2022/02/15 04:15:50;;;;;;;12.25;2.70;;;;;;;;;;5082659;28;20131;-64
2022/02/15 04:18:16;;;;;;;23.63;2.70;;;;;;;;;;5082840;28;20059;-64
2022/02/15 04:20:42;;;;;;;11.93;2.03;;;;;;;;;;5087300;28;20472;-64
2022/02/15 04:23:08;;;;;;;11.88;2.22;;;;;;;;;;5102703;28;20052;-64
2022/02/15 04:25:34;;;;;;;7.00;2.40;;;;;;;;;;5105121;28;20087;-64
2022/02/15 04:28:01;;;;;;;12.35;2.58;;;;;;;;;;5107098;28;20036;-64
2022/02/15 04:30:27;;;;;;;7.40;1.70;;;;;;;;;;5108464;28;20093;-64
2022/02/15 04:32:53;;;;;;;8.25;1.63;;;;;;;;;;5105573;28;20052;-64
2022/02/15 04:35:19;;;;;;;11.27;2.00;;;;;;;;;;5108832;28;20078;-64
2022/02/15 04:37:45;;;;;;;13.60;1.80;;;;;;;;;;5107643;28;20044;-64
2022/02/15 04:40:11;;;;;;;13.57;2.03;;;;;;;;;;5108000;28;20040;-64
2022/02/15 04:42:37;;;;;;;7.80;2.10;;;;;;;;;;5099322;28;20056;-64
2022/02/15 04:45:04;;;;;;;6.25;1.58;;;;;;;;;;5087513;28;20074;-64
2022/02/15 04:47:30;;;;;;;8.32;2.10;;;;;;;;;;5086437;28;20062;-64
2022/02/15 04:49:56;;;;;;;15.02;2.58;;;;;;;;;;5087818;28;20055;-64
2022/02/15 04:52:22;;;;;;;11.75;2.15;;;;;;;;;;5105899;28;20127;-64
2022/02/15 04:54:48;;;;;;;20.80;3.20;;;;;;;;;;5090716;28;20048;-64
2022/02/15 04:57:14;;;;;;;12.43;2.13;;;;;;;;;;5087243;28;20055;-64
2022/02/15 04:59:40;;;;;;;12.40;2.67;;;;;;;;;;5086118;28;20087;-64
2022/02/15 05:02:07;;;;;;;19.50;2.38;;;;;;;;;;5087685;28;20080;-63
2022/02/15 05:04:48;;;;;;;10.07;2.30;;;;;;;;;;5086106;28;20048;-64
2022/02/15 05:07:18;;;;;;;12.05;2.45;;;;;;;;;;5087001;28;20051;-64
2022/02/15 05:09:44;;;;;;;17.52;2.88;;;;;;;;;;5087287;28;20045;-65
2022/02/15 05:12:11;;;;;;;8.05;1.73;;;;;;;;;;5103130;28;20043;-65
2022/02/15 05:14:37;;;;;;;11.80;2.65;;;;;;;;;;5107328;28;20048;-64
2022/02/15 05:17:03;;;;;;;12.00;1.92;;;;;;;;;;5106722;28;20036;-65
2022/02/15 05:19:30;;;;;;;6.10;1.90;;;;;;;;;;5094069;28;20048;-65
2022/02/15 05:21:56;;;;;;;11.45;2.28;;;;;;;;;;5100246;28;20201;-65
2022/02/15 05:24:22;;;;;;;7.18;2.00;;;;;;;;;;5088664;28;20424;-64
2022/02/15 05:26:48;;;;;;;9.48;2.13;;;;;;;;;;5086506;28;20036;-64
2022/02/15 05:29:14;;;;;;;15.50;2.65;;;;;;;;;;5081237;28;20124;-65
2022/02/15 05:31:41;;;;;;;13.90;3.10;;;;;;;;;;5084430;28;20040;-65
2022/02/15 05:34:07;;;;;;;15.00;2.67;;;;;;;;;;5098612;28;20131;-65
2022/02/15 05:36:33;;;;;;;11.75;2.38;;;;;;;;;;5093835;28;20096;-64
2022/02/15 05:39:00;;;;;;;10.77;3.10;;;;;;;;;;5086910;28;20051;-65
2022/02/15 05:41:26;;;;;;;20.13;3.53;;;;;;;;;;5094922;28;20121;-64
2022/02/15 05:43:52;;;;;;;14.45;3.35;;;;;;;;;;5105700;28;20060;-64
2022/02/15 05:46:18;;;;;;;8.65;3.92;;;;;;;;;;5105596;28;20092;-64
2022/02/15 05:48:45;;;;;;;11.35;3.65;;;;;;;;;;5106709;28;20090;-64
2022/02/15 05:51:11;;;;;;;15.85;3.78;;;;;;;;;;5097009;28;20040;-64
2022/02/15 05:53:37;;;;;;;13.32;3.38;;;;;;;;;;5086757;28;20075;-65
2022/02/15 05:56:05;;;;;;;18.52;4.15;;;;;;;;;;5084877;28;20512;-64
2022/02/15 05:58:32;;;;;;;17.98;4.03;;;;;;;;;;5085271;28;20055;-65
2022/02/15 06:00:59;;;;;;;16.55;3.33;;;;;;;;;;5103518;28;20067;-64
2022/02/15 06:06:10;;;;;;;15.95;3.65;;;;;;;;;;5106059;28;20411;-64
2022/02/15 06:08:36;;;;;;;14.55;4.10;;;;;;;;;;5105440;28;20143;-64
2022/02/15 06:11:03;;;;;;;16.85;4.15;;;;;;;;;;5106290;28;20048;-64
2022/02/15 06:13:29;;;;;;;13.68;4.30;;;;;;;;;;5105104;28;20043;-64
2022/02/15 06:15:55;;;;;;;17.65;4.22;;;;;;;;;;5105097;28;20051;-64
2022/02/15 06:18:21;;;;;;;15.55;3.72;;;;;;;;;;5106846;28;20108;-64
2022/02/15 06:20:48;;;;;;;11.60;3.80;;;;;;;;;;5105423;28;20120;-64
2022/02/15 06:23:14;;;;;;;12.75;5.03;;;;;;;;;;5090323;28;20079;-64
2022/02/15 06:25:40;;;;;;;12.55;4.40;;;;;;;;;;5085715;28;20108;-64
2022/02/15 06:28:06;;;;;;;18.60;5.40;;;;;;;;;;5084708;28;20136;-64
2022/02/15 06:30:33;;;;;;;15.75;4.68;;;;;;;;;;5086218;28;20140;-64
2022/02/15 06:32:59;;;;;;;18.63;4.90;;;;;;;;;;5085704;28;20075;-64
2022/02/15 06:35:26;;;;;;;11.95;4.07;;;;;;;;;;5085704;28;20040;-64
2022/02/15 06:37:52;;;;;;;17.67;6.25;;;;;;;;;;5084883;28;20063;-64
2022/02/15 06:40:19;;;;;;;18.15;4.53;;;;;;;;;;5085341;28;20045;-64
2022/02/15 06:42:46;;;;;;;18.60;5.55;;;;;;;;;;5085955;28;20123;-64
2022/02/15 06:45:12;;;;;;;19.48;6.05;;;;;;;;;;5085120;28;20135;-64
2022/02/15 06:47:39;;;;;;;12.80;4.85;;;;;;;;;;5083759;28;20048;-64
2022/02/15 06:50:05;;;;;;;20.08;5.95;;;;;;;;;;5085245;28;20524;-64
2022/02/15 06:52:32;;;;;;;14.27;6.43;;;;;;;;;;5087894;28;20099;-65
2022/02/15 06:54:58;;;;;;;20.42;6.25;;;;;;;;;;5085153;28;20052;-65
2022/02/15 06:57:24;;;;;;;20.73;6.78;;;;;;;;;;5083338;28;20037;-64
2022/02/15 06:59:50;;;;;;;19.10;6.55;;;;;;;;;;5084939;28;20048;-66
2022/02/15 07:02:18;;;;;;;21.05;7.10;;;;;;;;;;5079692;28;20052;-65
2022/02/15 07:04:48;;;;;;;20.40;6.57;;;;;;;;;;5084798;28;20048;-65
2022/02/15 07:07:15;;;;;;;23.08;7.50;;;;;;;;;;5087701;28;20518;-65
2022/02/15 07:09:44;;;;;;;13.98;7.25;;;;;;;;;;5083499;28;20063;-65
2022/02/15 07:12:10;;;;;;;23.23;8.07;;;;;;;;;;5087999;28;20045;-67
2022/02/15 07:14:37;;;;;;;19.20;8.02;;;;;;;;;;5071901;28;20075;-65
2022/02/15 07:17:03;;;;;;;17.63;8.18;;;;;;;;;;5086744;28;20145;-65
2022/02/15 07:19:32;;;;;;;24.13;8.57;;;;;;;;;;5105562;28;20075;-64
2022/02/15 07:21:59;;;;;;;18.42;8.82;;;;;;;;;;5090048;28;20112;-65
2022/02/15 07:24:25;;;;;;;27.33;9.60;;;;;;;;;;5097762;28;20127;-65
2022/02/15 07:26:51;;;;;;;24.90;9.90;;;;;;;;;;5082559;28;20052;-65
2022/02/15 07:29:17;;;;;;;21.55;9.85;;;;;;;;;;5080204;28;20052;-65
2022/02/15 07:31:43;;;;;;;23.00;9.60;;;;;;;;;;5069740;28;20049;-65
2022/02/15 07:34:09;;;;;;;21.52;8.40;;;;;;;;;;5064843;28;20041;-65
2022/02/15 07:36:36;;;;;;;25.02;10.93;;;;;;;;;;5064719;28;20070;-64
2022/02/15 07:39:02;;;;;;;20.42;9.25;;;;;;;;;;5064968;28;20041;-65
2022/02/15 07:41:28;;;;;;;31.02;11.00;;;;;;;;;;5080089;28;20140;-64
2022/02/15 07:43:56;;;;;;;22.15;9.38;;;;;;;;;;5064714;28;20429;-66
2022/02/15 07:46:22;;;;;;;;;;;;;;;;;;5080573;28;20049;-65
2022/02/15 07:48:49;;;;;;;26.95;11.32;;;;;;;;;;5064440;28;19931;-65
2022/02/15 07:51:16;;;;;;;26.58;10.70;;;;;;;;;;5079294;28;20045;-65
2022/02/15 07:53:42;;;;;;;19.95;10.88;;;;;;;;;;5079695;28;20057;-65
2022/02/15 07:56:09;;;;;;;26.45;10.77;;;;;;;;;;5063616;28;20105;-65
2022/02/15 07:58:35;;;;;;;21.67;10.57;;;;;;;;;;5062908;28;20060;-67
2022/02/15 08:01:01;;;;;;;36.85;11.40;;;;;;;;;;5062662;28;20105;-65
2022/02/15 08:03:27;;;;;;;25.83;10.80;;;;;;;;;;5081083;28;20079;-64
2022/02/15 08:05:53;;;;;;;31.70;11.30;;;;;;;;;;5078897;28;20119;-64
2022/02/15 08:08:20;;;;;;;31.67;10.20;;;;;;;;;;5084173;28;20080;-65
2022/02/15 08:10:47;;;;;;;25.27;9.27;;;;;;;;;;5068717;28;20115;-65
2022/02/15 08:13:21;;;;;;;22.52;11.32;;;;;;;;;;5064155;28;20052;-65
2022/02/15 08:15:49;;;;;;;32.65;11.35;;;;;;;;;;5063948;28;20458;-64
2022/02/15 08:18:15;;;;;;;19.95;9.20;;;;;;;;;;5064202;28;20123;-65
2022/02/15 08:20:41;;;;;;;30.00;9.95;;;;;;;;;;5063173;28;20044;-66
2022/02/15 08:23:09;;;;;;;20.67;8.80;;;;;;;;;;5079246;28;20152;-66
2022/02/15 08:25:36;;;;;;;25.48;11.23;;;;;;;;;;5063767;28;20493;-66
2022/02/15 08:28:02;;;;;;;27.20;10.68;;;;;;;;;;5062541;28;20094;-65
2022/02/15 08:30:28;;;;;;;28.25;10.07;;;;;;;;;;5063276;28;20049;-67
2022/02/15 08:32:54;;;;;;;25.15;10.10;;;;;;;;;;5080360;28;20083;-65
2022/02/15 08:35:21;;;;;;;19.70;9.65;;;;;;;;;;5083445;28;20102;-65
2022/02/15 08:37:49;;;;;;;29.45;10.00;;;;;;;;;;5082957;28;20059;-66
2022/02/15 08:40:16;;;;;;;23.45;9.18;;;;;;;;;;5065713;28;20041;-65
2022/02/15 08:42:42;;;;;;;29.08;9.85;;;;;;;;;;5083825;28;20173;-65
2022/02/15 08:45:10;;;;;;;26.55;9.40;;;;;;;;;;5099275;28;20110;-65
2022/02/15 08:47:36;;;;;;;27.35;9.90;;;;;;;;;;5078861;28;20036;-65
2022/02/15 08:50:03;;;;;;;25.42;9.23;;;;;;;;;;5081159;28;20041;-65
2022/02/15 08:52:30;;;;;;;23.55;8.93;;;;;;;;;;5081229;28;20040;-65
2022/02/15 08:54:56;;;;;;;17.60;7.22;;;;;;;;;;5082873;28;20049;-67
2022/02/15 08:57:23;;;;;;;25.20;8.55;;;;;;;;;;5083716;28;20075;-65
2022/02/15 08:59:53;;;;;;;29.80;9.68;;;;;;;;;;5082175;28;20074;-66
2022/02/15 09:02:23;;;;;;;25.30;9.00;;;;;;;;;;5083612;28;20044;-65
2022/02/15 09:04:50;;;;;;;17.63;7.90;;;;;;;;;;5081167;28;20067;-67
2022/02/15 09:07:16;;;;;;;17.73;7.90;;;;;;;;;;5083176;28;20052;-65
2022/02/15 09:09:43;;;;;;;20.20;9.35;;;;;;;;;;5083961;28;20048;-65
2022/02/15 09:12:09;;;;;;;25.13;8.85;;;;;;;;;;5085968;28;20047;-65
2022/02/15 09:14:35;;;;;;;22.77;8.88;;;;;;;;;;5087032;28;20045;-64
2022/02/15 09:17:01;;;;;;;24.02;9.13;;;;;;;;;;5086856;28;20498;-66
2022/02/15 09:19:28;;;;;;;24.00;9.43;;;;;;;;;;5063713;28;20079;-64
2022/02/15 09:21:54;;;;;;;27.10;9.80;;;;;;;;;;5085518;28;20045;-65
2022/02/15 09:24:21;;;;;;;26.38;8.68;;;;;;;;;;5084346;28;20099;-64
2022/02/15 09:26:47;;;;;;;24.05;8.70;;;;;;;;;;5082465;28;20044;-65
2022/02/15 09:29:13;;;;;;;33.97;8.95;;;;;;;;;;5086331;28;20076;-64
2022/02/15 09:31:40;;;;;;;26.60;8.27;;;;;;;;;;5084866;28;20045;-65
2022/02/15 09:34:07;;;;;;;21.83;10.15;;;;;;;;;;5086194;28;20051;-65
2022/02/15 09:36:33;;;;;;;16.00;8.05;;;;;;;;;;5086600;28;20044;-65
2022/02/15 09:38:59;;;;;;;20.92;8.18;;;;;;;;;;5086846;28;20052;-65
2022/02/15 09:41:28;;;;;;;21.73;8.30;;;;;;;;;;5086508;28;20108;-65
2022/02/15 09:43:54;;;;;;;18.65;7.82;;;;;;;;;;5086019;28;20059;-65
2022/02/15 09:46:21;;;;;;;20.30;7.25;;;;;;;;;;5086457;28;20053;-65
2022/02/15 09:48:47;;;;;;;23.63;7.85;;;;;;;;;;5086342;28;20107;-65
2022/02/15 09:51:16;;;;;;;21.67;7.25;;;;;;;;;;5084726;28;20336;-65
2022/02/15 09:53:42;;;;;;;15.73;5.65;;;;;;;;;;5086098;28;20044;-65
2022/02/15 09:56:08;;;;;;;20.67;7.55;;;;;;;;;;5086047;28;20071;-65
2022/02/15 09:58:35;;;;;;;22.33;7.20;;;;;;;;;;5086060;28;20170;-65
2022/02/15 10:01:04;;;;;;;13.43;5.53;;;;;;;;;;5085003;28;20052;-65
2022/02/15 10:03:32;;;;;;;16.02;5.40;;;;;;;;;;5085052;28;20044;-65
2022/02/15 10:05:58;;;;;;;17.42;5.28;;;;;;;;;;5086315;28;20056;-65
2022/02/15 10:08:26;;;;;;;9.02;4.43;;;;;;;;;;5084953;28;20058;-65
2022/02/15 10:10:52;;;;;;;14.45;5.22;;;;;;;;;;5086002;28;20083;-65
2022/02/15 10:13:18;;;;;;;13.63;4.53;;;;;;;;;;5086134;28;20316;-65
2022/02/15 10:15:44;;;;;;;13.50;4.88;;;;;;;;;;5084660;28;20048;-65
2022/02/15 10:18:15;;;;;;;13.30;4.75;;;;;;;;;;5085207;28;20049;-65
2022/02/15 10:20:42;;;;;;;18.98;5.07;;;;;;;;;;5084758;28;20260;-65
2022/02/15 10:23:29;;;;;;;11.57;3.90;;;;;;;;;;5083265;28;20049;-65
2022/02/15 10:25:56;;;;;;;12.25;4.03;;;;;;;;;;5081350;28;20724;-65
2022/02/15 10:28:24;;;;;;;11.33;4.30;;;;;;;;;;5084569;28;20063;-65
2022/02/15 10:30:51;;;;;;;10.25;4.18;;;;;;;;;;5085787;28;20120;-65
2022/02/15 10:33:18;;;;;;;15.80;4.30;;;;;;;;;;5086018;28;20513;-65
2022/02/15 10:35:54;;;;;;;10.50;3.80;;;;;;;;;;5078060;28;20045;-65
2022/02/15 10:38:30;;;;;;;15.43;3.90;;;;;;;;;;5078021;28;20048;-65
2022/02/15 10:40:57;;;;;;;16.35;4.30;;;;;;;;;;5091634;28;20053;-65
2022/02/15 10:43:23;;;;;;;16.42;4.38;;;;;;;;;;5084701;28;20040;-65
2022/02/15 10:45:50;;;;;;;10.32;3.45;;;;;;;;;;5084813;28;20053;-64
2022/02/15 10:48:16;;;;;;;11.90;3.70;;;;;;;;;;5084756;28;20094;-66
2022/02/15 10:50:43;;;;;;;10.23;3.50;;;;;;;;;;5084692;28;20542;-65
2022/02/15 10:53:09;;;;;;;13.38;4.13;;;;;;;;;;5082453;28;20043;-65
2022/02/15 10:55:35;;;;;;;10.98;3.80;;;;;;;;;;5083097;28;20100;-65
2022/02/15 10:58:02;;;;;;;9.77;4.38;;;;;;;;;;5084618;28;20124;-65
2022/02/15 11:00:28;;;;;;;12.25;4.95;;;;;;;;;;5083887;28;20107;-65
2022/02/15 11:02:56;;;;;;;18.42;5.25;;;;;;;;;;5084226;28;20040;-64
2022/02/15 11:05:23;;;;;;;;;;;;;;;;;;5084185;28;20056;-64
2022/02/15 11:07:49;;;;;;;17.95;4.65;;;;;;;;;;5084627;28;19920;-64
2022/02/15 11:10:48;;;;;;;11.15;4.72;;;;;;;;;;5084420;28;20104;-65
2022/02/15 11:13:14;;;;;;;15.25;5.07;;;;;;;;;;5062223;28;20459;-64
2022/02/15 11:15:41;;;;;;;11.20;3.63;;;;;;;;;;5061961;28;20150;-64
2022/02/15 11:18:14;;;;;;;13.20;4.13;;;;;;;;;;5045477;28;20552;-64
2022/02/15 11:20:56;;;;;;;11.52;3.55;;;;;;;;;;5061131;28;20049;-65
2022/02/15 11:23:29;;;;;;;10.77;4.22;;;;;;;;;;5061329;28;20079;-64
2022/02/15 11:26:10;;;;;;;9.25;3.47;;;;;;;;;;5045457;28;20136;-65
2022/02/15 11:28:46;;;;;;;8.07;3.95;;;;;;;;;;5045091;28;20060;-64
2022/02/15 11:31:12;;;;;;;12.63;6.70;;;;;;;;;;5062041;28;20084;-65
2022/02/15 11:33:43;;;;;;;14.00;3.47;;;;;;;;;;5078137;28;20080;-64
2022/02/15 11:36:13;;;;;;;11.38;3.55;;;;;;;;;;5061308;28;20057;-64
2022/02/15 11:38:50;;;;;;;10.02;3.17;;;;;;;;;;5045802;28;20057;-64
2022/02/15 11:41:16;;;;;;;7.30;2.45;;;;;;;;;;5061150;28;20075;-66
2022/02/15 11:43:52;;;;;;;11.65;2.88;;;;;;;;;;5044786;28;20048;-65
2022/02/15 11:46:27;;;;;;;14.90;3.97;;;;;;;;;;5061371;28;20080;-64
2022/02/15 11:48:53;;;;;;;12.52;3.42;;;;;;;;;;5053308;28;20080;-65
2022/02/15 11:51:20;;;;;;;9.80;2.60;;;;;;;;;;5072588;28;20115;-64
2022/02/15 11:53:47;;;;;;;10.20;3.13;;;;;;;;;;5075759;28;20052;-64
2022/02/15 11:56:17;;;;;;;11.37;2.77;;;;;;;;;;5076561;28;20076;-65
2022/02/15 11:58:45;;;;;;;12.15;3.20;;;;;;;;;;5082121;28;20070;-65
2022/02/15 12:01:20;;;;;;;7.80;2.28;;;;;;;;;;5083693;28;20086;-65
2022/02/15 12:03:46;;;;;;;10.45;2.05;;;;;;;;;;5107955;28;20048;-66
2022/02/15 12:06:12;;;;;;;11.43;2.50;;;;;;;;;;5082262;28;20036;-66
2022/02/15 12:08:38;;;;;;;9.07;2.13;;;;;;;;;;5084343;28;20044;-66
2022/02/15 12:11:04;;;;;;;12.07;1.85;;;;;;;;;;5082118;28;20072;-66
2022/02/15 12:13:34;;;;;;;9.90;2.05;;;;;;;;;;5082791;28;20036;-66
2022/02/15 12:16:00;;;;;;;8.23;2.25;;;;;;;;;;5087870;28;20040;-65
2022/02/15 12:18:28;;;;;;;8.18;2.10;;;;;;;;;;5091059;28;20140;-65
2022/02/15 12:20:56;;;;;;;4.95;1.58;;;;;;;;;;5083474;28;20045;-65
2022/02/15 12:23:25;;;;;;;10.35;2.55;;;;;;;;;;5084335;28;20076;-65
2022/02/15 12:25:52;;;;;;;6.13;1.65;;;;;;;;;;5082181;28;20048;-66
2022/02/15 12:28:22;;;;;;;11.85;1.60;;;;;;;;;;5082656;28;20041;-65
2022/02/15 12:30:48;;;;;;;6.43;1.50;;;;;;;;;;5083684;28;20060;-65
2022/02/15 12:33:17;;;;;;;7.80;1.80;;;;;;;;;;5083572;28;20182;-65
2022/02/15 12:35:43;;;;;;;6.28;1.70;;;;;;;;;;5083842;28;20052;-65
2022/02/15 12:38:09;;;;;;;7.13;1.33;;;;;;;;;;5084025;28;20040;-66
2022/02/15 12:40:36;;;;;;;8.00;1.88;;;;;;;;;;5083709;28;20106;-65
2022/02/15 12:43:04;;;;;;;9.55;1.48;;;;;;;;;;5083446;28;20145;-66
2022/02/15 12:45:30;;;;;;;5.70;0.93;;;;;;;;;;5084105;28;20056;-65
2022/02/15 12:47:56;;;;;;;18.08;2.53;;;;;;;;;;5087540;28;20440;-64
2022/02/15 12:50:23;;;;;;;5.18;1.17;;;;;;;;;;5086581;28;20511;-64
2022/02/15 12:52:49;;;;;;;5.50;1.27;;;;;;;;;;5086778;28;20076;-64
2022/02/15 12:55:21;;;;;;;4.97;1.30;;;;;;;;;;5087444;28;20116;-65
2022/02/15 12:57:48;;;;;;;6.72;1.45;;;;;;;;;;5087131;28;20047;-64
2022/02/15 13:00:15;;;;;;;6.80;1.40;;;;;;;;;;5087326;28;20052;-65
2022/02/15 13:02:46;;;;;;;8.93;1.40;;;;;;;;;;5087563;28;20052;-65
2022/02/15 13:05:12;;;;;;;11.40;1.92;;;;;;;;;;5085956;28;20052;-65
2022/02/15 13:07:48;;;;;;;6.43;2.03;;;;;;;;;;5086677;28;20044;-65
2022/02/15 13:10:15;;;;;;;4.03;1.23;;;;;;;;;;5087274;28;20079;-65
2022/02/15 13:12:41;;;;;;;7.82;1.38;;;;;;;;;;5085600;28;20041;-65
2022/02/15 13:15:10;;;;;;;8.52;1.38;;;;;;;;;;5085830;28;20052;-65
2022/02/15 13:17:43;;;;;;;6.28;1.38;;;;;;;;;;5087302;28;20508;-65
2022/02/15 13:20:14;;;;;;;7.05;1.40;;;;;;;;;;5086973;28;20052;-65
2022/02/15 13:22:40;;;;;;;7.13;1.38;;;;;;;;;;5085104;28;20130;-65
2022/02/15 13:25:06;;;;;;;7.72;1.75;;;;;;;;;;5085525;28;20056;-65
2022/02/15 13:27:33;;;;;;;7.53;1.88;;;;;;;;;;5086537;28;20110;-65
2022/02/15 13:30:00;;;;;;;3.65;1.13;;;;;;;;;;5087110;28;20507;-65
2022/02/15 13:32:29;;;;;;;4.43;1.37;;;;;;;;;;5086809;28;20068;-65
2022/02/15 13:34:55;;;;;;;4.05;1.02;;;;;;;;;;5086771;28;20350;-65
2022/02/15 13:37:30;;;;;;;7.15;1.55;;;;;;;;;;5086185;28;20059;-64
2022/02/15 13:39:56;;;;;;;4.25;1.33;;;;;;;;;;5086629;28;20052;-65
2022/02/15 13:42:22;;;;;;;9.10;1.75;;;;;;;;;;5101976;28;20075;-65
2022/02/15 13:44:48;;;;;;;6.60;1.52;;;;;;;;;;5086755;28;20472;-65
2022/02/15 13:47:15;;;;;;;7.55;1.42;;;;;;;;;;5085154;28;20079;-64
2022/02/15 13:49:42;;;;;;;5.53;1.67;;;;;;;;;;5085940;28;20044;-64
2022/02/15 13:52:08;;;;;;;12.43;2.10;;;;;;;;;;5117954;28;20063;-66
2022/02/15 13:54:34;;;;;;;5.50;1.75;;;;;;;;;;5072246;28;20543;-64
2022/02/15 13:57:00;;;;;;;6.30;1.75;;;;;;;;;;5081754;28;20040;-65
2022/02/15 13:59:26;;;;;;;5.95;1.40;;;;;;;;;;5085296;28;20040;-65
2022/02/15 14:01:53;;;;;;;5.28;1.73;;;;;;;;;;5084994;28;20036;-65
2022/02/15 14:04:26;;;;;;;4.32;1.42;;;;;;;;;;5085869;28;20036;-65
2022/02/15 14:06:53;;;;;;;7.47;1.40;;;;;;;;;;5078277;28;20060;-65
2022/02/15 14:09:19;;;;;;;3.55;1.00;;;;;;;;;;5085652;28;20040;-65
2022/02/15 14:11:45;;;;;;;6.57;1.25;;;;;;;;;;5085552;28;20066;-65
2022/02/15 14:14:11;;;;;;;4.78;1.73;;;;;;;;;;5081095;28;20072;-63
2022/02/15 14:16:38;;;;;;;7.90;2.05;;;;;;;;;;5085054;28;20041;-65
2022/02/15 14:19:06;;;;;;;7.18;1.70;;;;;;;;;;5085856;28;20086;-64
2022/02/15 14:21:36;;;;;;;8.75;1.77;;;;;;;;;;5084337;28;20124;-64
2022/02/15 14:24:03;;;;;;;11.32;2.13;;;;;;;;;;5084342;28;20505;-64
2022/02/15 14:26:31;;;;;;;8.98;1.70;;;;;;;;;;5083544;28;20071;-64
2022/02/15 14:28:58;;;;;;;3.45;1.50;;;;;;;;;;5084804;28;20050;-64
2022/02/15 14:31:24;;;;;;;10.50;2.75;;;;;;;;;;5084340;28;20076;-64
2022/02/15 14:33:50;;;;;;;7.57;1.50;;;;;;;;;;5084308;28;20088;-65
2022/02/15 14:36:17;;;;;;;12.50;2.30;;;;;;;;;;5079510;28;20405;-65
2022/02/15 14:38:43;;;;;;;6.72;1.65;;;;;;;;;;5078172;28;20045;-65